sensor_id;sensor_type;location;lat;lon;timestamp;P1;durP1;ratioP1;P2;durP2;ratioP2
71080;SDS011;58740;50.672;18.690;2023-05-02T00:00:53;13.70;;;6.40;;
71080;SDS011;58740;50.672;18.690;2023-05-02T00:03:21;14.20;;;5.60;;
71080;SDS011;58740;50.672;18.690;2023-05-02T00:05:50;12.40;;;5.80;;
71080;SDS011;58740;50.672;18.690;2023-05-02T00:08:18;15.50;;;6.30;;
71080;SDS011;58740;50.672;18.690;2023-05-02T00:10:45;15.30;;;6.30;;
71080;SDS011;58740;50.672;18.690;2023-05-02T00:13:13;11.30;;;5.90;;
71080;SDS011;58740;50.672;18.690;2023-05-02T00:15:41;14.50;;;6.10;;
71080;SDS011;58740;50.672;18.690;2023-05-02T00:18:08;17.00;;;7.20;;
71080;SDS011;58740;50.672;18.690;2023-05-02T00:20:39;13.00;;;5.60;;
71080;SDS011;58740;50.672;18.690;2023-05-02T00:23:08;12.60;;;6.00;;
71080;SDS011;58740;50.672;18.690;2023-05-02T00:25:35;12.50;;;6.50;;
71080;SDS011;58740;50.672;18.690;2023-05-02T00:28:03;16.40;;;6.70;;
71080;SDS011;58740;50.672;18.690;2023-05-02T00:30:31;14.10;;;6.00;;
71080;SDS011;58740;50.672;18.690;2023-05-02T00:32:59;21.10;;;5.70;;
71080;SDS011;58740;50.672;18.690;2023-05-02T00:35:26;14.20;;;6.50;;
71080;SDS011;58740;50.672;18.690;2023-05-02T00:37:54;14.50;;;6.00;;
71080;SDS011;58740;50.672;18.690;2023-05-02T00:40:22;12.40;;;5.60;;
71080;SDS011;58740;50.672;18.690;2023-05-02T00:42:49;13.00;;;5.70;;
71080;SDS011;58740;50.672;18.690;2023-05-02T00:45:17;12.60;;;5.60;;
71080;SDS011;58740;50.672;18.690;2023-05-02T00:47:45;14.40;;;6.40;;
71080;SDS011;58740;50.672;18.690;2023-05-02T00:50:13;12.70;;;6.00;;
71080;SDS011;58740;50.672;18.690;2023-05-02T00:52:41;12.00;;;5.90;;
71080;SDS011;58740;50.672;18.690;2023-05-02T00:55:09;15.00;;;6.40;;
71080;SDS011;58740;50.672;18.690;2023-05-02T00:57:36;13.70;;;6.10;;
71080;SDS011;58740;50.672;18.690;2023-05-02T01:00:05;13.70;;;5.50;;
71080;SDS011;58740;50.672;18.690;2023-05-02T01:02:44;13.20;;;6.30;;
71080;SDS011;58740;50.672;18.690;2023-05-02T01:05:24;13.50;;;5.80;;
71080;SDS011;58740;50.672;18.690;2023-05-02T01:08:09;12.80;;;5.50;;
71080;SDS011;58740;50.672;18.690;2023-05-02T01:10:51;14.20;;;6.10;;
71080;SDS011;58740;50.672;18.690;2023-05-02T01:13:27;11.90;;;5.10;;
71080;SDS011;58740;50.672;18.690;2023-05-02T01:15:59;14.20;;;6.00;;
71080;SDS011;58740;50.672;18.690;2023-05-02T01:18:32;16.60;;;6.60;;
71080;SDS011;58740;50.672;18.690;2023-05-02T01:21:06;17.10;;;6.60;;
71080;SDS011;58740;50.672;18.690;2023-05-02T01:29:19;11.20;;;5.50;;
71080;SDS011;58740;50.672;18.690;2023-05-02T01:31:50;19.30;;;6.30;;
71080;SDS011;58740;50.672;18.690;2023-05-02T01:34:20;14.60;;;6.40;;
71080;SDS011;58740;50.672;18.690;2023-05-02T01:36:49;12.40;;;6.00;;
71080;SDS011;58740;50.672;18.690;2023-05-02T01:39:20;12.00;;;5.90;;
71080;SDS011;58740;50.672;18.690;2023-05-02T01:41:53;13.90;;;6.20;;
71080;SDS011;58740;50.672;18.690;2023-05-02T01:44:23;13.60;;;5.90;;
71080;SDS011;58740;50.672;18.690;2023-05-02T01:46:54;13.10;;;5.80;;
71080;SDS011;58740;50.672;18.690;2023-05-02T01:49:25;10.10;;;5.30;;
71080;SDS011;58740;50.672;18.690;2023-05-02T01:51:54;14.10;;;6.50;;
71080;SDS011;58740;50.672;18.690;2023-05-02T01:54:25;12.90;;;6.80;;
71080;SDS011;58740;50.672;18.690;2023-05-02T01:56:54;14.50;;;6.50;;
71080;SDS011;58740;50.672;18.690;2023-05-02T01:59:24;12.10;;;5.90;;
71080;SDS011;58740;50.672;18.690;2023-05-02T02:01:54;15.60;;;7.20;;
71080;SDS011;58740;50.672;18.690;2023-05-02T02:04:24;13.70;;;6.40;;
71080;SDS011;58740;50.672;18.690;2023-05-02T02:06:57;14.00;;;5.30;;
71080;SDS011;58740;50.672;18.690;2023-05-02T02:09:29;11.80;;;6.90;;
71080;SDS011;58740;50.672;18.690;2023-05-02T02:12:05;13.80;;;6.10;;
71080;SDS011;58740;50.672;18.690;2023-05-02T02:14:37;12.90;;;6.20;;
71080;SDS011;58740;50.672;18.690;2023-05-02T02:17:15;13.50;;;5.90;;
71080;SDS011;58740;50.672;18.690;2023-05-02T02:19:53;11.90;;;6.20;;
71080;SDS011;58740;50.672;18.690;2023-05-02T02:22:25;13.10;;;5.30;;
71080;SDS011;58740;50.672;18.690;2023-05-02T02:24:56;11.60;;;5.50;;
71080;SDS011;58740;50.672;18.690;2023-05-02T02:27:25;12.10;;;5.90;;
71080;SDS011;58740;50.672;18.690;2023-05-02T02:29:53;13.00;;;5.00;;
71080;SDS011;58740;50.672;18.690;2023-05-02T02:32:21;12.30;;;5.60;;
71080;SDS011;58740;50.672;18.690;2023-05-02T02:34:49;11.30;;;5.80;;
71080;SDS011;58740;50.672;18.690;2023-05-02T02:37:19;11.80;;;6.00;;
71080;SDS011;58740;50.672;18.690;2023-05-02T02:40:23;12.90;;;5.50;;
71080;SDS011;58740;50.672;18.690;2023-05-02T02:43:02;11.60;;;4.90;;
71080;SDS011;58740;50.672;18.690;2023-05-02T02:45:54;12.80;;;6.20;;
71080;SDS011;58740;50.672;18.690;2023-05-02T02:51:59;10.80;;;5.10;;
71080;SDS011;58740;50.672;18.690;2023-05-02T02:54:46;15.60;;;6.00;;
71080;SDS011;58740;50.672;18.690;2023-05-02T03:00:21;11.10;;;5.70;;
71080;SDS011;58740;50.672;18.690;2023-05-02T03:02:54;11.30;;;5.80;;
71080;SDS011;58740;50.672;18.690;2023-05-02T03:05:23;11.70;;;6.10;;
71080;SDS011;58740;50.672;18.690;2023-05-02T03:07:51;11.90;;;4.60;;
71080;SDS011;58740;50.672;18.690;2023-05-02T03:10:21;11.60;;;5.40;;
71080;SDS011;58740;50.672;18.690;2023-05-02T03:12:49;13.40;;;6.30;;
71080;SDS011;58740;50.672;18.690;2023-05-02T03:18:18;12.80;;;5.70;;
71080;SDS011;58740;50.672;18.690;2023-05-02T03:20:46;13.50;;;6.20;;
71080;SDS011;58740;50.672;18.690;2023-05-02T03:23:14;12.60;;;5.60;;
71080;SDS011;58740;50.672;18.690;2023-05-02T03:25:41;14.80;;;6.00;;
71080;SDS011;58740;50.672;18.690;2023-05-02T03:28:09;13.80;;;6.40;;
71080;SDS011;58740;50.672;18.690;2023-05-02T03:30:37;10.70;;;4.90;;
71080;SDS011;58740;50.672;18.690;2023-05-02T03:33:07;8.70;;;4.30;;
71080;SDS011;58740;50.672;18.690;2023-05-02T03:35:35;11.70;;;6.50;;
71080;SDS011;58740;50.672;18.690;2023-05-02T03:38:03;13.30;;;7.10;;
71080;SDS011;58740;50.672;18.690;2023-05-02T03:40:30;14.60;;;6.60;;
71080;SDS011;58740;50.672;18.690;2023-05-02T03:42:58;11.70;;;5.60;;
71080;SDS011;58740;50.672;18.690;2023-05-02T03:45:26;12.80;;;6.00;;
71080;SDS011;58740;50.672;18.690;2023-05-02T03:47:53;13.70;;;6.60;;
71080;SDS011;58740;50.672;18.690;2023-05-02T03:50:22;13.50;;;6.40;;
71080;SDS011;58740;50.672;18.690;2023-05-02T03:52:50;13.00;;;6.20;;
71080;SDS011;58740;50.672;18.690;2023-05-02T03:55:18;13.90;;;6.10;;
71080;SDS011;58740;50.672;18.690;2023-05-02T03:57:45;10.40;;;5.50;;
71080;SDS011;58740;50.672;18.690;2023-05-02T04:00:13;11.50;;;5.30;;
71080;SDS011;58740;50.672;18.690;2023-05-02T04:02:41;14.30;;;6.20;;
71080;SDS011;58740;50.672;18.690;2023-05-02T04:05:09;13.30;;;6.20;;
71080;SDS011;58740;50.672;18.690;2023-05-02T04:07:37;11.90;;;5.30;;
71080;SDS011;58740;50.672;18.690;2023-05-02T04:10:05;10.80;;;6.10;;
71080;SDS011;58740;50.672;18.690;2023-05-02T04:12:33;12.60;;;5.90;;
71080;SDS011;58740;50.672;18.690;2023-05-02T04:15:01;14.60;;;6.00;;
71080;SDS011;58740;50.672;18.690;2023-05-02T04:17:29;12.10;;;5.90;;
71080;SDS011;58740;50.672;18.690;2023-05-02T04:19:57;13.10;;;6.20;;
71080;SDS011;58740;50.672;18.690;2023-05-02T04:22:25;11.60;;;5.20;;
71080;SDS011;58740;50.672;18.690;2023-05-02T04:24:53;14.40;;;5.80;;
71080;SDS011;58740;50.672;18.690;2023-05-02T04:27:21;13.10;;;5.70;;
71080;SDS011;58740;50.672;18.690;2023-05-02T04:29:49;13.60;;;6.00;;
71080;SDS011;58740;50.672;18.690;2023-05-02T04:32:18;11.90;;;5.80;;
71080;SDS011;58740;50.672;18.690;2023-05-02T04:34:46;11.10;;;6.20;;
71080;SDS011;58740;50.672;18.690;2023-05-02T04:37:14;12.50;;;5.40;;
71080;SDS011;58740;50.672;18.690;2023-05-02T04:39:42;11.60;;;4.70;;
71080;SDS011;58740;50.672;18.690;2023-05-02T04:42:10;12.30;;;6.30;;
71080;SDS011;58740;50.672;18.690;2023-05-02T04:44:37;9.60;;;5.30;;
71080;SDS011;58740;50.672;18.690;2023-05-02T04:47:05;10.90;;;4.80;;
71080;SDS011;58740;50.672;18.690;2023-05-02T04:49:33;9.90;;;5.10;;
71080;SDS011;58740;50.672;18.690;2023-05-02T04:52:01;8.00;;;4.00;;
71080;SDS011;58740;50.672;18.690;2023-05-02T04:54:31;9.70;;;5.10;;
71080;SDS011;58740;50.672;18.690;2023-05-02T04:57:01;11.90;;;4.80;;
71080;SDS011;58740;50.672;18.690;2023-05-02T04:59:30;12.90;;;5.60;;
71080;SDS011;58740;50.672;18.690;2023-05-02T05:01:57;10.80;;;5.90;;
71080;SDS011;58740;50.672;18.690;2023-05-02T05:04:25;10.10;;;3.60;;
71080;SDS011;58740;50.672;18.690;2023-05-02T05:06:53;11.70;;;5.50;;
71080;SDS011;58740;50.672;18.690;2023-05-02T05:09:21;10.30;;;5.40;;
71080;SDS011;58740;50.672;18.690;2023-05-02T05:11:49;10.20;;;5.10;;
71080;SDS011;58740;50.672;18.690;2023-05-02T05:14:16;10.90;;;5.30;;
71080;SDS011;58740;50.672;18.690;2023-05-02T05:16:44;11.50;;;4.50;;
71080;SDS011;58740;50.672;18.690;2023-05-02T05:19:12;12.70;;;5.20;;
71080;SDS011;58740;50.672;18.690;2023-05-02T05:21:40;11.10;;;5.10;;
71080;SDS011;58740;50.672;18.690;2023-05-02T05:24:07;13.80;;;5.10;;
71080;SDS011;58740;50.672;18.690;2023-05-02T05:26:36;12.00;;;5.70;;
71080;SDS011;58740;50.672;18.690;2023-05-02T05:29:04;14.20;;;7.10;;
71080;SDS011;58740;50.672;18.690;2023-05-02T05:31:31;10.10;;;5.40;;
71080;SDS011;58740;50.672;18.690;2023-05-02T05:33:59;10.30;;;4.80;;
71080;SDS011;58740;50.672;18.690;2023-05-02T05:36:29;12.20;;;4.80;;
71080;SDS011;58740;50.672;18.690;2023-05-02T05:38:57;10.70;;;4.40;;
71080;SDS011;58740;50.672;18.690;2023-05-02T05:41:25;9.00;;;3.90;;
71080;SDS011;58740;50.672;18.690;2023-05-02T05:43:53;8.30;;;3.80;;
71080;SDS011;58740;50.672;18.690;2023-05-02T05:46:22;10.80;;;4.50;;
71080;SDS011;58740;50.672;18.690;2023-05-02T05:48:50;8.80;;;3.70;;
71080;SDS011;58740;50.672;18.690;2023-05-02T05:51:18;7.70;;;3.90;;
71080;SDS011;58740;50.672;18.690;2023-05-02T05:53:46;9.80;;;3.90;;
71080;SDS011;58740;50.672;18.690;2023-05-02T05:56:14;11.20;;;4.80;;
71080;SDS011;58740;50.672;18.690;2023-05-02T05:58:41;8.20;;;3.60;;
71080;SDS011;58740;50.672;18.690;2023-05-02T06:01:10;9.70;;;3.70;;
71080;SDS011;58740;50.672;18.690;2023-05-02T06:03:39;8.40;;;3.60;;
71080;SDS011;58740;50.672;18.690;2023-05-02T06:06:07;7.00;;;3.20;;
71080;SDS011;58740;50.672;18.690;2023-05-02T06:08:34;8.90;;;3.40;;
71080;SDS011;58740;50.672;18.690;2023-05-02T06:11:02;7.60;;;3.40;;
71080;SDS011;58740;50.672;18.690;2023-05-02T06:13:30;7.90;;;3.20;;
71080;SDS011;58740;50.672;18.690;2023-05-02T06:16:00;6.80;;;2.90;;
71080;SDS011;58740;50.672;18.690;2023-05-02T06:18:29;7.50;;;3.10;;
71080;SDS011;58740;50.672;18.690;2023-05-02T06:20:57;8.50;;;2.90;;
71080;SDS011;58740;50.672;18.690;2023-05-02T06:23:24;6.90;;;2.80;;
71080;SDS011;58740;50.672;18.690;2023-05-02T06:25:52;8.40;;;3.10;;
71080;SDS011;58740;50.672;18.690;2023-05-02T06:28:20;10.00;;;4.90;;
71080;SDS011;58740;50.672;18.690;2023-05-02T06:30:56;8.60;;;3.10;;
71080;SDS011;58740;50.672;18.690;2023-05-02T06:33:31;7.70;;;3.10;;
71080;SDS011;58740;50.672;18.690;2023-05-02T06:36:00;8.00;;;3.00;;
71080;SDS011;58740;50.672;18.690;2023-05-02T06:38:29;5.80;;;2.70;;
71080;SDS011;58740;50.672;18.690;2023-05-02T06:40:56;6.10;;;3.00;;
71080;SDS011;58740;50.672;18.690;2023-05-02T06:43:24;6.80;;;2.80;;
71080;SDS011;58740;50.672;18.690;2023-05-02T06:45:53;6.90;;;3.30;;
71080;SDS011;58740;50.672;18.690;2023-05-02T06:48:22;7.50;;;3.30;;
71080;SDS011;58740;50.672;18.690;2023-05-02T06:50:51;6.50;;;3.00;;
71080;SDS011;58740;50.672;18.690;2023-05-02T06:53:20;5.80;;;2.50;;
71080;SDS011;58740;50.672;18.690;2023-05-02T06:55:48;7.20;;;3.10;;
71080;SDS011;58740;50.672;18.690;2023-05-02T06:58:17;7.00;;;3.00;;
71080;SDS011;58740;50.672;18.690;2023-05-02T07:00:45;6.40;;;2.80;;
71080;SDS011;58740;50.672;18.690;2023-05-02T07:03:13;5.60;;;2.80;;
71080;SDS011;58740;50.672;18.690;2023-05-02T07:05:41;9.90;;;3.30;;
71080;SDS011;58740;50.672;18.690;2023-05-02T07:08:09;8.40;;;2.70;;
71080;SDS011;58740;50.672;18.690;2023-05-02T07:10:36;8.10;;;3.20;;
71080;SDS011;58740;50.672;18.690;2023-05-02T07:13:04;6.30;;;3.30;;
71080;SDS011;58740;50.672;18.690;2023-05-02T07:15:32;7.40;;;3.00;;
71080;SDS011;58740;50.672;18.690;2023-05-02T07:17:59;6.80;;;3.20;;
71080;SDS011;58740;50.672;18.690;2023-05-02T07:20:27;8.90;;;3.10;;
71080;SDS011;58740;50.672;18.690;2023-05-02T07:22:55;11.70;;;3.20;;
71080;SDS011;58740;50.672;18.690;2023-05-02T07:25:23;7.70;;;2.80;;
71080;SDS011;58740;50.672;18.690;2023-05-02T07:27:50;10.20;;;3.50;;
71080;SDS011;58740;50.672;18.690;2023-05-02T07:30:18;8.40;;;3.20;;
71080;SDS011;58740;50.672;18.690;2023-05-02T07:32:46;6.50;;;3.00;;
71080;SDS011;58740;50.672;18.690;2023-05-02T07:35:14;6.60;;;3.20;;
71080;SDS011;58740;50.672;18.690;2023-05-02T07:37:42;6.50;;;3.10;;
71080;SDS011;58740;50.672;18.690;2023-05-02T07:40:09;8.60;;;3.40;;
71080;SDS011;58740;50.672;18.690;2023-05-02T07:42:37;8.00;;;3.10;;
71080;SDS011;58740;50.672;18.690;2023-05-02T07:45:07;8.20;;;4.20;;
71080;SDS011;58740;50.672;18.690;2023-05-02T07:47:35;6.80;;;3.30;;
71080;SDS011;58740;50.672;18.690;2023-05-02T07:50:03;9.50;;;3.50;;
71080;SDS011;58740;50.672;18.690;2023-05-02T07:52:32;9.60;;;3.80;;
71080;SDS011;58740;50.672;18.690;2023-05-02T07:55:00;6.90;;;3.30;;
71080;SDS011;58740;50.672;18.690;2023-05-02T07:57:28;7.10;;;3.70;;
71080;SDS011;58740;50.672;18.690;2023-05-02T07:59:55;7.20;;;3.20;;
71080;SDS011;58740;50.672;18.690;2023-05-02T08:02:26;8.50;;;3.60;;
71080;SDS011;58740;50.672;18.690;2023-05-02T08:04:56;7.80;;;3.00;;
71080;SDS011;58740;50.672;18.690;2023-05-02T08:07:23;7.40;;;3.40;;
71080;SDS011;58740;50.672;18.690;2023-05-02T08:09:51;10.50;;;4.10;;
71080;SDS011;58740;50.672;18.690;2023-05-02T08:12:19;8.50;;;3.80;;
71080;SDS011;58740;50.672;18.690;2023-05-02T08:14:47;6.70;;;3.40;;
71080;SDS011;58740;50.672;18.690;2023-05-02T08:17:15;8.90;;;3.90;;
71080;SDS011;58740;50.672;18.690;2023-05-02T08:19:42;8.40;;;3.20;;
71080;SDS011;58740;50.672;18.690;2023-05-02T08:22:10;7.70;;;3.60;;
71080;SDS011;58740;50.672;18.690;2023-05-02T08:24:38;6.90;;;3.30;;
71080;SDS011;58740;50.672;18.690;2023-05-02T08:27:06;7.40;;;3.70;;
71080;SDS011;58740;50.672;18.690;2023-05-02T08:29:33;10.10;;;3.80;;
71080;SDS011;58740;50.672;18.690;2023-05-02T08:32:02;8.80;;;4.00;;
71080;SDS011;58740;50.672;18.690;2023-05-02T08:34:30;8.00;;;3.20;;
71080;SDS011;58740;50.672;18.690;2023-05-02T08:37:00;6.40;;;3.40;;
71080;SDS011;58740;50.672;18.690;2023-05-02T08:39:31;8.50;;;3.30;;
71080;SDS011;58740;50.672;18.690;2023-05-02T08:41:59;8.50;;;3.10;;
71080;SDS011;58740;50.672;18.690;2023-05-02T08:44:27;7.60;;;3.30;;
71080;SDS011;58740;50.672;18.690;2023-05-02T08:46:58;7.00;;;3.00;;
71080;SDS011;58740;50.672;18.690;2023-05-02T08:49:28;7.60;;;3.20;;
71080;SDS011;58740;50.672;18.690;2023-05-02T08:51:59;6.10;;;3.00;;
71080;SDS011;58740;50.672;18.690;2023-05-02T08:54:27;9.80;;;3.30;;
71080;SDS011;58740;50.672;18.690;2023-05-02T08:56:55;8.70;;;3.20;;
71080;SDS011;58740;50.672;18.690;2023-05-02T08:59:25;7.00;;;3.30;;
71080;SDS011;58740;50.672;18.690;2023-05-02T09:01:58;7.80;;;3.20;;
71080;SDS011;58740;50.672;18.690;2023-05-02T09:04:33;6.90;;;3.40;;
71080;SDS011;58740;50.672;18.690;2023-05-02T09:07:03;8.00;;;3.80;;
71080;SDS011;58740;50.672;18.690;2023-05-02T09:09:32;7.70;;;3.90;;
71080;SDS011;58740;50.672;18.690;2023-05-02T09:12:00;6.80;;;3.20;;
71080;SDS011;58740;50.672;18.690;2023-05-02T09:14:29;8.90;;;4.40;;
71080;SDS011;58740;50.672;18.690;2023-05-02T09:16:57;9.50;;;3.60;;
71080;SDS011;58740;50.672;18.690;2023-05-02T09:19:29;6.30;;;3.10;;
71080;SDS011;58740;50.672;18.690;2023-05-02T09:22:00;8.10;;;3.60;;
71080;SDS011;58740;50.672;18.690;2023-05-02T09:24:28;6.80;;;3.40;;
71080;SDS011;58740;50.672;18.690;2023-05-02T09:27:01;8.30;;;3.80;;
71080;SDS011;58740;50.672;18.690;2023-05-02T09:29:32;8.10;;;3.80;;
71080;SDS011;58740;50.672;18.690;2023-05-02T09:32:05;5.90;;;3.20;;
71080;SDS011;58740;50.672;18.690;2023-05-02T09:34:33;6.10;;;3.30;;
71080;SDS011;58740;50.672;18.690;2023-05-02T09:37:03;7.20;;;3.60;;
71080;SDS011;58740;50.672;18.690;2023-05-02T09:39:32;10.00;;;4.40;;
71080;SDS011;58740;50.672;18.690;2023-05-02T09:41:59;7.40;;;3.80;;
71080;SDS011;58740;50.672;18.690;2023-05-02T09:44:36;7.30;;;3.70;;
71080;SDS011;58740;50.672;18.690;2023-05-02T09:47:04;7.30;;;3.50;;
71080;SDS011;58740;50.672;18.690;2023-05-02T09:49:43;6.60;;;4.10;;
71080;SDS011;58740;50.672;18.690;2023-05-02T09:52:17;8.70;;;3.70;;
71080;SDS011;58740;50.672;18.690;2023-05-02T09:54:49;6.90;;;3.60;;
71080;SDS011;58740;50.672;18.690;2023-05-02T09:57:19;7.90;;;3.20;;
71080;SDS011;58740;50.672;18.690;2023-05-02T09:59:57;8.10;;;4.20;;
71080;SDS011;58740;50.672;18.690;2023-05-02T10:02:29;7.50;;;3.40;;
71080;SDS011;58740;50.672;18.690;2023-05-02T10:05:00;8.60;;;3.90;;
71080;SDS011;58740;50.672;18.690;2023-05-02T10:07:29;7.80;;;3.60;;
71080;SDS011;58740;50.672;18.690;2023-05-02T10:09:58;7.90;;;4.40;;
71080;SDS011;58740;50.672;18.690;2023-05-02T10:12:29;6.90;;;3.30;;
71080;SDS011;58740;50.672;18.690;2023-05-02T10:15:03;6.60;;;3.40;;
71080;SDS011;58740;50.672;18.690;2023-05-02T10:17:39;8.40;;;4.00;;
71080;SDS011;58740;50.672;18.690;2023-05-02T10:20:20;6.70;;;3.50;;
71080;SDS011;58740;50.672;18.690;2023-05-02T10:22:53;6.70;;;3.30;;
71080;SDS011;58740;50.672;18.690;2023-05-02T10:25:22;8.30;;;3.90;;
71080;SDS011;58740;50.672;18.690;2023-05-02T10:27:51;7.50;;;3.30;;
71080;SDS011;58740;50.672;18.690;2023-05-02T10:30:19;8.30;;;3.50;;
71080;SDS011;58740;50.672;18.690;2023-05-02T10:32:48;7.00;;;3.40;;
71080;SDS011;58740;50.672;18.690;2023-05-02T10:35:18;7.00;;;3.20;;
71080;SDS011;58740;50.672;18.690;2023-05-02T10:37:47;5.80;;;3.10;;
71080;SDS011;58740;50.672;18.690;2023-05-02T10:40:17;5.10;;;2.70;;
71080;SDS011;58740;50.672;18.690;2023-05-02T10:42:46;11.10;;;3.50;;
71080;SDS011;58740;50.672;18.690;2023-05-02T10:45:34;8.70;;;3.00;;
71080;SDS011;58740;50.672;18.690;2023-05-02T10:48:15;6.40;;;3.10;;
71080;SDS011;58740;50.672;18.690;2023-05-02T10:50:49;5.40;;;2.60;;
71080;SDS011;58740;50.672;18.690;2023-05-02T10:53:29;6.60;;;2.90;;
71080;SDS011;58740;50.672;18.690;2023-05-02T10:56:19;5.90;;;2.90;;
71080;SDS011;58740;50.672;18.690;2023-05-02T10:58:49;4.90;;;2.30;;
71080;SDS011;58740;50.672;18.690;2023-05-02T11:04:06;6.50;;;3.20;;
71080;SDS011;58740;50.672;18.690;2023-05-02T11:06:36;6.40;;;2.80;;
71080;SDS011;58740;50.672;18.690;2023-05-02T11:11:51;6.00;;;2.30;;
71080;SDS011;58740;50.672;18.690;2023-05-02T11:19:26;6.50;;;2.90;;
71080;SDS011;58740;50.672;18.690;2023-05-02T11:24:45;6.20;;;2.70;;
71080;SDS011;58740;50.672;18.690;2023-05-02T11:29:58;6.20;;;2.60;;
71080;SDS011;58740;50.672;18.690;2023-05-02T11:35:18;6.20;;;2.20;;
71080;SDS011;58740;50.672;18.690;2023-05-02T11:37:54;5.80;;;2.60;;
71080;SDS011;58740;50.672;18.690;2023-05-02T11:40:25;4.70;;;2.40;;
71080;SDS011;58740;50.672;18.690;2023-05-02T11:42:55;6.40;;;2.30;;
71080;SDS011;58740;50.672;18.690;2023-05-02T11:45:34;4.30;;;2.00;;
71080;SDS011;58740;50.672;18.690;2023-05-02T11:48:06;4.10;;;2.00;;
71080;SDS011;58740;50.672;18.690;2023-05-02T11:50:42;5.10;;;2.40;;
71080;SDS011;58740;50.672;18.690;2023-05-02T11:53:19;5.20;;;2.20;;
71080;SDS011;58740;50.672;18.690;2023-05-02T11:56:03;5.40;;;2.60;;
71080;SDS011;58740;50.672;18.690;2023-05-02T11:58:31;5.60;;;2.20;;
71080;SDS011;58740;50.672;18.690;2023-05-02T12:01:14;6.70;;;2.80;;
71080;SDS011;58740;50.672;18.690;2023-05-02T12:03:43;6.70;;;3.10;;
71080;SDS011;58740;50.672;18.690;2023-05-02T12:06:16;10.60;;;3.40;;
71080;SDS011;58740;50.672;18.690;2023-05-02T12:08:48;7.70;;;3.30;;
71080;SDS011;58740;50.672;18.690;2023-05-02T12:11:16;8.20;;;3.80;;
71080;SDS011;58740;50.672;18.690;2023-05-02T12:13:45;9.70;;;3.90;;
71080;SDS011;58740;50.672;18.690;2023-05-02T12:16:15;9.40;;;4.40;;
71080;SDS011;58740;50.672;18.690;2023-05-02T12:18:44;7.80;;;4.00;;
71080;SDS011;58740;50.672;18.690;2023-05-02T12:21:14;6.40;;;3.20;;
71080;SDS011;58740;50.672;18.690;2023-05-02T12:23:42;7.30;;;3.30;;
71080;SDS011;58740;50.672;18.690;2023-05-02T12:26:22;7.80;;;3.60;;
71080;SDS011;58740;50.672;18.690;2023-05-02T12:28:53;8.50;;;3.20;;
71080;SDS011;58740;50.672;18.690;2023-05-02T12:31:22;7.10;;;3.00;;
71080;SDS011;58740;50.672;18.690;2023-05-02T12:33:51;10.80;;;3.60;;
71080;SDS011;58740;50.672;18.690;2023-05-02T12:36:24;5.90;;;2.70;;
71080;SDS011;58740;50.672;18.690;2023-05-02T12:38:54;7.90;;;2.50;;
71080;SDS011;58740;50.672;18.690;2023-05-02T12:41:37;16.10;;;6.30;;
71080;SDS011;58740;50.672;18.690;2023-05-02T12:44:06;10.60;;;4.40;;
71080;SDS011;58740;50.672;18.690;2023-05-02T12:46:34;7.40;;;3.10;;
71080;SDS011;58740;50.672;18.690;2023-05-02T12:49:07;5.30;;;2.50;;
71080;SDS011;58740;50.672;18.690;2023-05-02T12:51:39;6.60;;;2.30;;
71080;SDS011;58740;50.672;18.690;2023-05-02T12:54:07;6.60;;;2.90;;
71080;SDS011;58740;50.672;18.690;2023-05-02T12:56:39;6.30;;;2.90;;
71080;SDS011;58740;50.672;18.690;2023-05-02T12:59:10;6.80;;;2.30;;
71080;SDS011;58740;50.672;18.690;2023-05-02T13:01:57;6.00;;;2.60;;
71080;SDS011;58740;50.672;18.690;2023-05-02T13:04:36;5.90;;;2.50;;
71080;SDS011;58740;50.672;18.690;2023-05-02T13:07:07;5.30;;;2.80;;
71080;SDS011;58740;50.672;18.690;2023-05-02T13:09:34;6.10;;;2.30;;
71080;SDS011;58740;50.672;18.690;2023-05-02T13:12:02;6.70;;;3.10;;
71080;SDS011;58740;50.672;18.690;2023-05-02T13:14:31;6.80;;;3.20;;
71080;SDS011;58740;50.672;18.690;2023-05-02T13:16:58;5.50;;;2.40;;
71080;SDS011;58740;50.672;18.690;2023-05-02T13:19:26;5.30;;;2.30;;
71080;SDS011;58740;50.672;18.690;2023-05-02T13:21:57;6.00;;;3.10;;
71080;SDS011;58740;50.672;18.690;2023-05-02T13:24:25;6.40;;;2.60;;
71080;SDS011;58740;50.672;18.690;2023-05-02T13:26:53;5.80;;;2.60;;
71080;SDS011;58740;50.672;18.690;2023-05-02T13:29:21;5.90;;;2.80;;
71080;SDS011;58740;50.672;18.690;2023-05-02T13:31:49;6.20;;;2.80;;
71080;SDS011;58740;50.672;18.690;2023-05-02T13:34:16;6.60;;;2.90;;
71080;SDS011;58740;50.672;18.690;2023-05-02T13:36:44;7.00;;;3.80;;
71080;SDS011;58740;50.672;18.690;2023-05-02T13:39:13;5.00;;;2.50;;
71080;SDS011;58740;50.672;18.690;2023-05-02T13:41:41;8.10;;;3.10;;
71080;SDS011;58740;50.672;18.690;2023-05-02T13:44:09;18.90;;;7.90;;
71080;SDS011;58740;50.672;18.690;2023-05-02T13:46:37;18.10;;;7.90;;
71080;SDS011;58740;50.672;18.690;2023-05-02T13:49:05;9.90;;;4.70;;
71080;SDS011;58740;50.672;18.690;2023-05-02T13:51:33;8.00;;;3.40;;
71080;SDS011;58740;50.672;18.690;2023-05-02T13:54:01;6.40;;;2.90;;
71080;SDS011;58740;50.672;18.690;2023-05-02T13:56:29;7.00;;;3.20;;
71080;SDS011;58740;50.672;18.690;2023-05-02T13:58:57;6.40;;;2.70;;
71080;SDS011;58740;50.672;18.690;2023-05-02T14:01:24;7.20;;;2.20;;
71080;SDS011;58740;50.672;18.690;2023-05-02T14:03:55;5.80;;;2.80;;
71080;SDS011;58740;50.672;18.690;2023-05-02T14:06:23;5.70;;;2.80;;
71080;SDS011;58740;50.672;18.690;2023-05-02T14:08:51;6.40;;;2.90;;
71080;SDS011;58740;50.672;18.690;2023-05-02T14:11:19;5.90;;;2.90;;
71080;SDS011;58740;50.672;18.690;2023-05-02T14:13:47;7.50;;;3.30;;
71080;SDS011;58740;50.672;18.690;2023-05-02T14:16:15;7.30;;;3.30;;
71080;SDS011;58740;50.672;18.690;2023-05-02T14:18:43;7.40;;;3.70;;
71080;SDS011;58740;50.672;18.690;2023-05-02T14:21:12;6.20;;;3.00;;
71080;SDS011;58740;50.672;18.690;2023-05-02T14:23:39;7.00;;;3.70;;
71080;SDS011;58740;50.672;18.690;2023-05-02T14:26:07;9.40;;;4.00;;
71080;SDS011;58740;50.672;18.690;2023-05-02T14:28:35;8.80;;;3.10;;
71080;SDS011;58740;50.672;18.690;2023-05-02T14:31:06;6.10;;;3.30;;
71080;SDS011;58740;50.672;18.690;2023-05-02T14:33:34;8.10;;;3.30;;
71080;SDS011;58740;50.672;18.690;2023-05-02T14:36:02;6.60;;;3.50;;
71080;SDS011;58740;50.672;18.690;2023-05-02T14:38:30;7.20;;;3.20;;
71080;SDS011;58740;50.672;18.690;2023-05-02T14:40:58;7.60;;;3.50;;
71080;SDS011;58740;50.672;18.690;2023-05-02T14:43:26;9.10;;;5.00;;
71080;SDS011;58740;50.672;18.690;2023-05-02T14:45:54;11.00;;;5.20;;
71080;SDS011;58740;50.672;18.690;2023-05-02T14:48:23;25.20;;;10.40;;
71080;SDS011;58740;50.672;18.690;2023-05-02T14:50:51;16.00;;;7.40;;
71080;SDS011;58740;50.672;18.690;2023-05-02T14:53:20;12.80;;;5.50;;
71080;SDS011;58740;50.672;18.690;2023-05-02T14:55:47;12.10;;;5.80;;
71080;SDS011;58740;50.672;18.690;2023-05-02T14:58:15;14.30;;;6.80;;
71080;SDS011;58740;50.672;18.690;2023-05-02T15:00:47;10.40;;;5.60;;
71080;SDS011;58740;50.672;18.690;2023-05-02T15:03:15;9.90;;;5.50;;
71080;SDS011;58740;50.672;18.690;2023-05-02T15:05:43;10.30;;;5.30;;
71080;SDS011;58740;50.672;18.690;2023-05-02T15:08:11;8.70;;;4.30;;
71080;SDS011;58740;50.672;18.690;2023-05-02T15:10:39;9.20;;;4.20;;
71080;SDS011;58740;50.672;18.690;2023-05-02T15:13:06;9.50;;;3.80;;
71080;SDS011;58740;50.672;18.690;2023-05-02T15:15:35;8.40;;;4.50;;
71080;SDS011;58740;50.672;18.690;2023-05-02T15:18:04;9.30;;;4.40;;